sensor_id;sensor_type;location;lat;lon;timestamp;P1;durP1;ratioP1;P2;durP2;ratioP2
66183;SDS011;52989;48.796;9.806;2022-09-12T00:00:39;21.30;;;14.48;;
66183;SDS011;52989;48.796;9.806;2022-09-12T00:03:05;29.98;;;15.23;;
66183;SDS011;52989;48.796;9.806;2022-09-12T00:05:30;24.02;;;13.85;;
66183;SDS011;52989;48.796;9.806;2022-09-12T00:07:57;23.30;;;13.95;;
66183;SDS011;52989;48.796;9.806;2022-09-12T00:10:23;23.73;;;14.55;;
66183;SDS011;52989;48.796;9.806;2022-09-12T00:12:49;25.33;;;15.02;;
66183;SDS011;52989;48.796;9.806;2022-09-12T00:15:14;22.67;;;14.05;;
66183;SDS011;52989;48.796;9.806;2022-09-12T00:17:40;23.05;;;14.45;;
66183;SDS011;52989;48.796;9.806;2022-09-12T00:20:06;24.20;;;14.80;;
66183;SDS011;52989;48.796;9.806;2022-09-12T00:22:33;32.42;;;15.40;;
66183;SDS011;52989;48.796;9.806;2022-09-12T00:24:59;20.42;;;14.07;;
66183;SDS011;52989;48.796;9.806;2022-09-12T00:27:26;24.23;;;15.38;;
66183;SDS011;52989;48.796;9.806;2022-09-12T00:29:52;20.48;;;13.82;;
66183;SDS011;52989;48.796;9.806;2022-09-12T00:32:17;19.45;;;13.50;;
66183;SDS011;52989;48.796;9.806;2022-09-12T00:34:43;26.52;;;13.70;;
66183;SDS011;52989;48.796;9.806;2022-09-12T00:37:09;25.30;;;13.70;;
66183;SDS011;52989;48.796;9.806;2022-09-12T00:39:35;25.85;;;14.32;;
66183;SDS011;52989;48.796;9.806;2022-09-12T00:42:00;21.65;;;13.05;;
66183;SDS011;52989;48.796;9.806;2022-09-12T00:47:00;20.38;;;12.43;;
66183;SDS011;52989;48.796;9.806;2022-09-12T00:49:48;17.83;;;12.70;;
66183;SDS011;52989;48.796;9.806;2022-09-12T00:52:19;23.40;;;12.88;;
66183;SDS011;52989;48.796;9.806;2022-09-12T00:54:56;22.50;;;13.82;;
66183;SDS011;52989;48.796;9.806;2022-09-12T00:57:29;28.80;;;15.02;;
66183;SDS011;52989;48.796;9.806;2022-09-12T01:00:10;21.73;;;14.07;;
66183;SDS011;52989;48.796;9.806;2022-09-12T01:02:39;20.00;;;14.90;;
66183;SDS011;52989;48.796;9.806;2022-09-12T01:05:09;26.08;;;16.15;;
66183;SDS011;52989;48.796;9.806;2022-09-12T01:07:37;22.30;;;15.18;;
66183;SDS011;52989;48.796;9.806;2022-09-12T01:10:04;21.88;;;14.40;;
66183;SDS011;52989;48.796;9.806;2022-09-12T01:12:30;21.98;;;14.50;;
66183;SDS011;52989;48.796;9.806;2022-09-12T01:14:57;21.25;;;14.77;;
66183;SDS011;52989;48.796;9.806;2022-09-12T01:17:23;23.45;;;15.02;;
66183;SDS011;52989;48.796;9.806;2022-09-12T01:20:17;25.38;;;14.73;;
66183;SDS011;52989;48.796;9.806;2022-09-12T01:31:10;22.48;;;14.23;;
66183;SDS011;52989;48.796;9.806;2022-09-12T01:33:48;24.33;;;14.88;;
66183;SDS011;52989;48.796;9.806;2022-09-12T01:36:25;24.23;;;14.32;;
66183;SDS011;52989;48.796;9.806;2022-09-12T01:39:03;22.52;;;15.60;;
66183;SDS011;52989;48.796;9.806;2022-09-12T01:41:54;20.88;;;14.95;;
66183;SDS011;52989;48.796;9.806;2022-09-12T01:44:34;22.10;;;15.27;;
66183;SDS011;52989;48.796;9.806;2022-09-12T01:47:13;25.35;;;15.02;;
66183;SDS011;52989;48.796;9.806;2022-09-12T01:54:58;17.70;;;12.90;;
66183;SDS011;52989;48.796;9.806;2022-09-12T01:57:39;21.80;;;13.85;;
66183;SDS011;52989;48.796;9.806;2022-09-12T02:00:18;22.35;;;14.20;;
66183;SDS011;52989;48.796;9.806;2022-09-12T02:05:30;21.52;;;15.02;;
66183;SDS011;52989;48.796;9.806;2022-09-12T02:08:05;22.90;;;13.85;;
66183;SDS011;52989;48.796;9.806;2022-09-12T02:10:39;25.90;;;14.27;;
66183;SDS011;52989;48.796;9.806;2022-09-12T02:13:13;21.88;;;14.52;;
66183;SDS011;52989;48.796;9.806;2022-09-12T02:15:43;21.05;;;14.23;;
66183;SDS011;52989;48.796;9.806;2022-09-12T02:18:14;20.55;;;14.73;;
66183;SDS011;52989;48.796;9.806;2022-09-12T02:20:42;18.42;;;12.07;;
66183;SDS011;52989;48.796;9.806;2022-09-12T02:23:13;22.80;;;13.07;;
66183;SDS011;52989;48.796;9.806;2022-09-12T02:25:45;22.60;;;14.50;;
66183;SDS011;52989;48.796;9.806;2022-09-12T02:28:14;22.52;;;14.35;;
66183;SDS011;52989;48.796;9.806;2022-09-12T02:30:51;25.60;;;14.07;;
66183;SDS011;52989;48.796;9.806;2022-09-12T02:33:31;21.63;;;13.23;;
66183;SDS011;52989;48.796;9.806;2022-09-12T02:36:14;19.20;;;12.73;;
66183;SDS011;52989;48.796;9.806;2022-09-12T02:38:52;18.85;;;13.00;;
66183;SDS011;52989;48.796;9.806;2022-09-12T02:41:19;18.80;;;13.35;;
66183;SDS011;52989;48.796;9.806;2022-09-12T02:43:46;22.42;;;14.02;;
66183;SDS011;52989;48.796;9.806;2022-09-12T02:46:21;23.33;;;13.88;;
66183;SDS011;52989;48.796;9.806;2022-09-12T02:48:50;29.23;;;14.18;;
66183;SDS011;52989;48.796;9.806;2022-09-12T02:51:17;21.67;;;13.07;;
66183;SDS011;52989;48.796;9.806;2022-09-12T02:53:42;18.58;;;11.52;;
66183;SDS011;52989;48.796;9.806;2022-09-12T02:56:10;20.20;;;12.40;;
66183;SDS011;52989;48.796;9.806;2022-09-12T02:58:40;21.02;;;13.50;;
66183;SDS011;52989;48.796;9.806;2022-09-12T03:10:13;20.00;;;13.35;;
66183;SDS011;52989;48.796;9.806;2022-09-12T03:15:42;24.10;;;13.20;;
66183;SDS011;52989;48.796;9.806;2022-09-12T03:18:30;24.92;;;13.57;;
66183;SDS011;52989;48.796;9.806;2022-09-12T03:21:32;23.98;;;14.40;;
66183;SDS011;52989;48.796;9.806;2022-09-12T03:26:55;18.48;;;12.68;;
66183;SDS011;52989;48.796;9.806;2022-09-12T03:29:55;20.40;;;12.48;;
66183;SDS011;52989;48.796;9.806;2022-09-12T03:35:05;26.73;;;13.85;;
66183;SDS011;52989;48.796;9.806;2022-09-12T03:37:32;24.95;;;13.45;;
66183;SDS011;52989;48.796;9.806;2022-09-12T03:39:57;21.73;;;13.95;;
66183;SDS011;52989;48.796;9.806;2022-09-12T03:42:23;18.15;;;12.32;;
66183;SDS011;52989;48.796;9.806;2022-09-12T03:44:48;20.85;;;12.85;;
66183;SDS011;52989;48.796;9.806;2022-09-12T03:47:15;21.60;;;13.35;;
66183;SDS011;52989;48.796;9.806;2022-09-12T03:49:40;20.73;;;13.15;;
66183;SDS011;52989;48.796;9.806;2022-09-12T03:52:06;18.35;;;13.05;;
66183;SDS011;52989;48.796;9.806;2022-09-12T03:54:31;20.38;;;11.90;;
66183;SDS011;52989;48.796;9.806;2022-09-12T03:56:57;18.50;;;11.65;;
66183;SDS011;52989;48.796;9.806;2022-09-12T03:59:22;18.42;;;11.20;;
66183;SDS011;52989;48.796;9.806;2022-09-12T04:01:48;22.20;;;13.52;;
66183;SDS011;52989;48.796;9.806;2022-09-12T04:04:13;23.13;;;13.48;;
66183;SDS011;52989;48.796;9.806;2022-09-12T04:06:39;24.70;;;13.80;;
66183;SDS011;52989;48.796;9.806;2022-09-12T04:09:06;25.15;;;14.02;;
66183;SDS011;52989;48.796;9.806;2022-09-12T04:11:31;23.58;;;13.27;;
66183;SDS011;52989;48.796;9.806;2022-09-12T04:13:57;19.42;;;12.80;;
66183;SDS011;52989;48.796;9.806;2022-09-12T04:16:22;19.23;;;12.20;;
66183;SDS011;52989;48.796;9.806;2022-09-12T04:18:48;23.30;;;11.75;;
66183;SDS011;52989;48.796;9.806;2022-09-12T04:21:14;18.30;;;12.05;;
66183;SDS011;52989;48.796;9.806;2022-09-12T04:23:42;21.83;;;12.70;;
66183;SDS011;52989;48.796;9.806;2022-09-12T04:26:08;21.90;;;12.55;;
66183;SDS011;52989;48.796;9.806;2022-09-12T04:28:35;22.23;;;12.95;;
66183;SDS011;52989;48.796;9.806;2022-09-12T04:31:20;21.85;;;12.68;;
66183;SDS011;52989;48.796;9.806;2022-09-12T04:33:51;22.67;;;13.93;;
66183;SDS011;52989;48.796;9.806;2022-09-12T04:36:18;23.52;;;14.13;;
66183;SDS011;52989;48.796;9.806;2022-09-12T04:38:45;22.17;;;13.30;;
66183;SDS011;52989;48.796;9.806;2022-09-12T04:41:12;19.50;;;12.90;;
66183;SDS011;52989;48.796;9.806;2022-09-12T04:43:38;27.13;;;13.68;;
66183;SDS011;52989;48.796;9.806;2022-09-12T04:46:07;21.73;;;13.27;;
66183;SDS011;52989;48.796;9.806;2022-09-12T04:48:34;22.35;;;13.27;;
66183;SDS011;52989;48.796;9.806;2022-09-12T04:51:33;20.90;;;13.48;;
66183;SDS011;52989;48.796;9.806;2022-09-12T04:53:55;20.52;;;13.27;;
66183;SDS011;52989;48.796;9.806;2022-09-12T04:56:25;17.20;;;12.25;;
66183;SDS011;52989;48.796;9.806;2022-09-12T04:58:52;19.88;;;12.43;;
66183;SDS011;52989;48.796;9.806;2022-09-12T05:01:18;19.10;;;11.73;;
66183;SDS011;52989;48.796;9.806;2022-09-12T05:03:45;22.58;;;13.13;;
66183;SDS011;52989;48.796;9.806;2022-09-12T05:06:16;23.33;;;13.75;;
66183;SDS011;52989;48.796;9.806;2022-09-12T05:08:47;25.25;;;14.43;;
66183;SDS011;52989;48.796;9.806;2022-09-12T05:11:15;22.13;;;13.63;;
66183;SDS011;52989;48.796;9.806;2022-09-12T05:13:42;19.55;;;13.35;;
66183;SDS011;52989;48.796;9.806;2022-09-12T05:16:12;20.02;;;11.93;;
66183;SDS011;52989;48.796;9.806;2022-09-12T05:18:39;19.55;;;12.05;;
66183;SDS011;52989;48.796;9.806;2022-09-12T05:21:06;21.77;;;13.27;;
66183;SDS011;52989;48.796;9.806;2022-09-12T05:23:34;22.52;;;13.82;;
66183;SDS011;52989;48.796;9.806;2022-09-12T05:26:00;22.05;;;14.55;;
66183;SDS011;52989;48.796;9.806;2022-09-12T05:28:29;17.00;;;11.65;;
66183;SDS011;52989;48.796;9.806;2022-09-12T05:31:00;22.00;;;12.23;;
66183;SDS011;52989;48.796;9.806;2022-09-12T05:33:28;24.42;;;13.23;;
66183;SDS011;52989;48.796;9.806;2022-09-12T05:35:54;24.88;;;13.10;;
66183;SDS011;52989;48.796;9.806;2022-09-12T05:38:20;22.20;;;13.10;;
66183;SDS011;52989;48.796;9.806;2022-09-12T05:40:47;24.02;;;13.13;;
66183;SDS011;52989;48.796;9.806;2022-09-12T05:43:13;20.42;;;13.75;;
66183;SDS011;52989;48.796;9.806;2022-09-12T05:45:38;22.25;;;13.07;;
66183;SDS011;52989;48.796;9.806;2022-09-12T05:48:05;23.60;;;14.73;;
66183;SDS011;52989;48.796;9.806;2022-09-12T05:50:30;22.95;;;14.35;;
66183;SDS011;52989;48.796;9.806;2022-09-12T05:52:56;23.40;;;13.00;;
66183;SDS011;52989;48.796;9.806;2022-09-12T05:55:22;18.70;;;11.80;;
66183;SDS011;52989;48.796;9.806;2022-09-12T05:57:48;24.63;;;13.00;;
66183;SDS011;52989;48.796;9.806;2022-09-12T06:00:14;25.27;;;12.40;;
66183;SDS011;52989;48.796;9.806;2022-09-12T06:02:40;22.17;;;13.57;;
66183;SDS011;52989;48.796;9.806;2022-09-12T06:05:06;24.95;;;15.00;;
66183;SDS011;52989;48.796;9.806;2022-09-12T06:07:32;27.92;;;15.90;;
66183;SDS011;52989;48.796;9.806;2022-09-12T06:10:00;26.33;;;16.65;;
66183;SDS011;52989;48.796;9.806;2022-09-12T06:12:27;26.10;;;16.67;;
66183;SDS011;52989;48.796;9.806;2022-09-12T06:14:54;28.50;;;16.65;;
66183;SDS011;52989;48.796;9.806;2022-09-12T06:17:19;25.25;;;17.05;;
66183;SDS011;52989;48.796;9.806;2022-09-12T06:19:46;28.45;;;17.33;;
66183;SDS011;52989;48.796;9.806;2022-09-12T06:22:11;27.05;;;17.58;;
66183;SDS011;52989;48.796;9.806;2022-09-12T06:24:37;28.73;;;17.35;;
66183;SDS011;52989;48.796;9.806;2022-09-12T06:27:03;21.60;;;13.82;;
66183;SDS011;52989;48.796;9.806;2022-09-12T06:29:29;20.70;;;13.07;;
66183;SDS011;52989;48.796;9.806;2022-09-12T06:31:56;23.70;;;13.68;;
66183;SDS011;52989;48.796;9.806;2022-09-12T06:34:22;23.50;;;14.35;;
66183;SDS011;52989;48.796;9.806;2022-09-12T06:36:48;23.80;;;14.75;;
66183;SDS011;52989;48.796;9.806;2022-09-12T06:39:17;24.80;;;14.88;;
66183;SDS011;52989;48.796;9.806;2022-09-12T06:41:45;22.02;;;14.63;;
66183;SDS011;52989;48.796;9.806;2022-09-12T06:44:13;22.48;;;15.13;;
66183;SDS011;52989;48.796;9.806;2022-09-12T06:46:43;27.05;;;16.48;;
66183;SDS011;52989;48.796;9.806;2022-09-12T06:49:09;25.70;;;16.55;;
66183;SDS011;52989;48.796;9.806;2022-09-12T06:51:35;26.73;;;18.50;;
66183;SDS011;52989;48.796;9.806;2022-09-12T06:54:01;25.98;;;17.77;;
66183;SDS011;52989;48.796;9.806;2022-09-12T06:56:27;27.70;;;18.33;;
66183;SDS011;52989;48.796;9.806;2022-09-12T06:58:54;28.38;;;18.15;;
66183;SDS011;52989;48.796;9.806;2022-09-12T07:01:22;26.52;;;17.48;;
66183;SDS011;52989;48.796;9.806;2022-09-12T07:03:57;24.75;;;16.50;;
66183;SDS011;52989;48.796;9.806;2022-09-12T07:06:29;21.90;;;15.15;;
66183;SDS011;52989;48.796;9.806;2022-09-12T07:09:00;17.52;;;12.95;;
66183;SDS011;52989;48.796;9.806;2022-09-12T07:11:28;17.38;;;12.77;;
66183;SDS011;52989;48.796;9.806;2022-09-12T07:13:56;22.90;;;15.30;;
66183;SDS011;52989;48.796;9.806;2022-09-12T07:16:23;20.88;;;14.25;;
66183;SDS011;52989;48.796;9.806;2022-09-12T07:18:56;21.60;;;15.45;;
66183;SDS011;52989;48.796;9.806;2022-09-12T07:21:23;21.08;;;14.93;;
66183;SDS011;52989;48.796;9.806;2022-09-12T07:23:49;19.70;;;13.88;;
66183;SDS011;52989;48.796;9.806;2022-09-12T07:26:28;21.13;;;13.20;;
66183;SDS011;52989;48.796;9.806;2022-09-12T07:28:54;20.20;;;13.75;;
66183;SDS011;52989;48.796;9.806;2022-09-12T07:31:22;19.85;;;13.80;;
66183;SDS011;52989;48.796;9.806;2022-09-12T07:33:48;18.42;;;12.73;;
66183;SDS011;52989;48.796;9.806;2022-09-12T07:36:15;19.05;;;13.15;;
66183;SDS011;52989;48.796;9.806;2022-09-12T07:38:42;18.65;;;12.88;;
66183;SDS011;52989;48.796;9.806;2022-09-12T07:41:17;20.10;;;14.15;;
66183;SDS011;52989;48.796;9.806;2022-09-12T07:43:45;17.13;;;11.95;;
66183;SDS011;52989;48.796;9.806;2022-09-12T07:46:11;22.23;;;12.63;;
66183;SDS011;52989;48.796;9.806;2022-09-12T07:48:38;19.10;;;13.57;;
66183;SDS011;52989;48.796;9.806;2022-09-12T07:51:04;18.77;;;12.43;;
66183;SDS011;52989;48.796;9.806;2022-09-12T07:53:35;18.35;;;11.82;;
66183;SDS011;52989;48.796;9.806;2022-09-12T07:56:06;16.95;;;12.50;;
66183;SDS011;52989;48.796;9.806;2022-09-12T07:58:33;14.55;;;11.00;;
66183;SDS011;52989;48.796;9.806;2022-09-12T08:01:21;17.90;;;11.70;;
66183;SDS011;52989;48.796;9.806;2022-09-12T08:03:52;15.60;;;11.25;;
66183;SDS011;52989;48.796;9.806;2022-09-12T08:06:22;15.90;;;9.80;;
66183;SDS011;52989;48.796;9.806;2022-09-12T08:08:50;11.77;;;9.65;;
66183;SDS011;52989;48.796;9.806;2022-09-12T08:11:18;12.00;;;9.45;;
66183;SDS011;52989;48.796;9.806;2022-09-12T08:13:46;12.25;;;8.45;;
66183;SDS011;52989;48.796;9.806;2022-09-12T08:16:16;12.35;;;8.77;;
66183;SDS011;52989;48.796;9.806;2022-09-12T08:18:45;11.52;;;7.90;;
66183;SDS011;52989;48.796;9.806;2022-09-12T08:21:11;12.70;;;7.97;;
66183;SDS011;52989;48.796;9.806;2022-09-12T08:23:42;9.23;;;6.72;;
66183;SDS011;52989;48.796;9.806;2022-09-12T08:26:09;7.25;;;5.82;;
66183;SDS011;52989;48.796;9.806;2022-09-12T08:28:36;11.40;;;6.53;;
66183;SDS011;52989;48.796;9.806;2022-09-12T08:31:07;9.18;;;6.30;;
66183;SDS011;52989;48.796;9.806;2022-09-12T08:33:37;6.87;;;5.40;;
66183;SDS011;52989;48.796;9.806;2022-09-12T08:36:04;6.55;;;4.95;;
66183;SDS011;52989;48.796;9.806;2022-09-12T08:38:32;8.10;;;5.13;;
66183;SDS011;52989;48.796;9.806;2022-09-12T08:41:08;5.20;;;4.57;;
66183;SDS011;52989;48.796;9.806;2022-09-12T08:49:26;5.85;;;3.70;;
66183;SDS011;52989;48.796;9.806;2022-09-12T08:51:58;6.75;;;4.38;;
66183;SDS011;52989;48.796;9.806;2022-09-12T08:54:29;6.88;;;4.30;;
66183;SDS011;52989;48.796;9.806;2022-09-12T08:57:03;4.78;;;4.30;;
66183;SDS011;52989;48.796;9.806;2022-09-12T08:59:33;5.05;;;3.20;;
66183;SDS011;52989;48.796;9.806;2022-09-12T09:02:02;3.97;;;3.30;;
66183;SDS011;52989;48.796;9.806;2022-09-12T09:04:44;6.18;;;3.40;;
66183;SDS011;52989;48.796;9.806;2022-09-12T09:15:25;6.30;;;3.25;;
66183;SDS011;52989;48.796;9.806;2022-09-12T09:18:20;4.22;;;2.90;;
66183;SDS011;52989;48.796;9.806;2022-09-12T09:21:12;4.07;;;2.60;;
66183;SDS011;52989;48.796;9.806;2022-09-12T09:23:45;3.55;;;2.65;;
66183;SDS011;52989;48.796;9.806;2022-09-12T09:26:22;4.13;;;3.30;;
66183;SDS011;52989;48.796;9.806;2022-09-12T09:29:36;3.65;;;2.95;;
66183;SDS011;52989;48.796;9.806;2022-09-12T09:31:46;6.78;;;3.00;;
66183;SDS011;52989;48.796;9.806;2022-09-12T09:34:16;5.18;;;2.70;;
66183;SDS011;52989;48.796;9.806;2022-09-12T09:44:46;3.38;;;2.28;;
66183;SDS011;52989;48.796;9.806;2022-09-12T09:47:13;3.08;;;2.40;;
66183;SDS011;52989;48.796;9.806;2022-09-12T09:49:39;2.53;;;2.20;;
66183;SDS011;52989;48.796;9.806;2022-09-12T09:52:06;2.65;;;2.22;;
66183;SDS011;52989;48.796;9.806;2022-09-12T10:00:18;2.90;;;2.20;;
66183;SDS011;52989;48.796;9.806;2022-09-12T10:05:28;4.05;;;2.30;;
66183;SDS011;52989;48.796;9.806;2022-09-12T10:07:56;2.50;;;2.10;;
66183;SDS011;52989;48.796;9.806;2022-09-12T10:10:22;2.30;;;2.10;;
66183;SDS011;52989;48.796;9.806;2022-09-12T10:12:48;3.63;;;1.85;;
66183;SDS011;52989;48.796;9.806;2022-09-12T10:15:17;2.42;;;2.22;;
66183;SDS011;52989;48.796;9.806;2022-09-12T10:17:44;2.70;;;2.13;;
66183;SDS011;52989;48.796;9.806;2022-09-12T10:25:46;3.72;;;1.80;;
66183;SDS011;52989;48.796;9.806;2022-09-12T10:28:40;2.60;;;1.88;;
66183;SDS011;52989;48.796;9.806;2022-09-12T10:31:15;3.72;;;1.92;;
66183;SDS011;52989;48.796;9.806;2022-09-12T10:33:52;3.72;;;1.60;;
66183;SDS011;52989;48.796;9.806;2022-09-12T10:36:23;4.30;;;1.88;;
66183;SDS011;52989;48.796;9.806;2022-09-12T10:38:51;1.70;;;1.60;;
66183;SDS011;52989;48.796;9.806;2022-09-12T10:41:22;2.75;;;1.77;;
66183;SDS011;52989;48.796;9.806;2022-09-12T10:43:48;2.85;;;1.85;;
66183;SDS011;52989;48.796;9.806;2022-09-12T10:48:43;3.25;;;1.70;;
66183;SDS011;52989;48.796;9.806;2022-09-12T10:53:47;2.72;;;2.17;;
66183;SDS011;52989;48.796;9.806;2022-09-12T10:56:18;5.38;;;2.55;;
66183;SDS011;52989;48.796;9.806;2022-09-12T11:03:52;2.22;;;1.70;;
66183;SDS011;52989;48.796;9.806;2022-09-12T11:06:29;3.10;;;1.75;;
66183;SDS011;52989;48.796;9.806;2022-09-12T11:09:29;1.70;;;1.60;;
66183;SDS011;52989;48.796;9.806;2022-09-12T11:12:07;2.92;;;1.90;;
66183;SDS011;52989;48.796;9.806;2022-09-12T11:25:44;5.68;;;1.83;;
66183;SDS011;52989;48.796;9.806;2022-09-12T11:28:26;3.50;;;1.67;;
66183;SDS011;52989;48.796;9.806;2022-09-12T11:34:04;2.58;;;1.80;;
66183;SDS011;52989;48.796;9.806;2022-09-12T11:36:48;2.25;;;1.80;;
66183;SDS011;52989;48.796;9.806;2022-09-12T11:39:28;5.60;;;1.58;;
66183;SDS011;52989;48.796;9.806;2022-09-12T11:42:03;2.05;;;1.50;;
66183;SDS011;52989;48.796;9.806;2022-09-12T11:44:35;4.60;;;1.80;;
66183;SDS011;52989;48.796;9.806;2022-09-12T11:47:04;2.58;;;1.73;;
66183;SDS011;52989;48.796;9.806;2022-09-12T11:49:39;2.13;;;1.52;;
66183;SDS011;52989;48.796;9.806;2022-09-12T11:52:17;4.10;;;1.92;;
66183;SDS011;52989;48.796;9.806;2022-09-12T11:54:52;2.08;;;1.40;;
66183;SDS011;52989;48.796;9.806;2022-09-12T11:57:40;2.92;;;1.48;;
66183;SDS011;52989;48.796;9.806;2022-09-12T12:00:20;4.00;;;1.75;;
66183;SDS011;52989;48.796;9.806;2022-09-12T12:06:06;5.15;;;1.60;;
66183;SDS011;52989;48.796;9.806;2022-09-12T12:08:38;3.38;;;1.65;;
66183;SDS011;52989;48.796;9.806;2022-09-12T12:11:06;2.17;;;1.58;;
66183;SDS011;52989;48.796;9.806;2022-09-12T12:13:40;2.42;;;1.50;;
66183;SDS011;52989;48.796;9.806;2022-09-12T12:16:12;1.60;;;1.40;;
66183;SDS011;52989;48.796;9.806;2022-09-12T12:18:45;2.20;;;1.42;;
66183;SDS011;52989;48.796;9.806;2022-09-12T12:21:37;3.72;;;1.65;;
66183;SDS011;52989;48.796;9.806;2022-09-12T12:29:12;3.58;;;1.73;;
66183;SDS011;52989;48.796;9.806;2022-09-12T12:32:17;2.75;;;1.40;;
66183;SDS011;52989;48.796;9.806;2022-09-12T12:47:33;3.28;;;1.65;;
66183;SDS011;52989;48.796;9.806;2022-09-12T12:55:37;2.85;;;1.67;;
66183;SDS011;52989;48.796;9.806;2022-09-12T13:03:39;2.08;;;1.30;;
66183;SDS011;52989;48.796;9.806;2022-09-12T13:11:41;3.25;;;1.27;;
66183;SDS011;52989;48.796;9.806;2022-09-12T13:17:21;1.20;;;1.10;;
66183;SDS011;52989;48.796;9.806;2022-09-12T13:19:52;2.80;;;1.35;;
66183;SDS011;52989;48.796;9.806;2022-09-12T13:22:33;4.43;;;1.20;;
66183;SDS011;52989;48.796;9.806;2022-09-12T13:27:57;1.70;;;1.10;;
66183;SDS011;52989;48.796;9.806;2022-09-12T13:30:34;1.80;;;1.10;;
66183;SDS011;52989;48.796;9.806;2022-09-12T13:33:06;2.15;;;1.30;;
66183;SDS011;52989;48.796;9.806;2022-09-12T13:42:00;2.05;;;1.05;;
66183;SDS011;52989;48.796;9.806;2022-09-12T13:44:41;1.52;;;1.30;;
66183;SDS011;52989;48.796;9.806;2022-09-12T13:47:24;6.75;;;1.23;;
66183;SDS011;52989;48.796;9.806;2022-09-12T13:50:12;1.38;;;1.02;;
66183;SDS011;52989;48.796;9.806;2022-09-12T13:52:45;2.28;;;1.30;;
66183;SDS011;52989;48.796;9.806;2022-09-12T13:55:21;1.77;;;1.10;;
66183;SDS011;52989;48.796;9.806;2022-09-12T13:58:27;1.90;;;1.40;;
66183;SDS011;52989;48.796;9.806;2022-09-12T14:01:35;2.20;;;1.30;;
66183;SDS011;52989;48.796;9.806;2022-09-12T14:03:37;1.88;;;1.27;;
66183;SDS011;52989;48.796;9.806;2022-09-12T14:06:25;1.67;;;1.00;;
66183;SDS011;52989;48.796;9.806;2022-09-12T14:08:51;1.90;;;1.00;;
66183;SDS011;52989;48.796;9.806;2022-09-12T14:11:27;1.45;;;1.00;;
66183;SDS011;52989;48.796;9.806;2022-09-12T14:13:55;2.65;;;1.27;;
66183;SDS011;52989;48.796;9.806;2022-09-12T14:16:21;1.40;;;1.30;;
66183;SDS011;52989;48.796;9.806;2022-09-12T14:18:51;3.08;;;1.10;;
66183;SDS011;52989;48.796;9.806;2022-09-12T14:21:31;2.28;;;1.33;;
66183;SDS011;52989;48.796;9.806;2022-09-12T14:23:59;1.65;;;1.10;;
66183;SDS011;52989;48.796;9.806;2022-09-12T14:26:28;1.23;;;1.13;;
66183;SDS011;52989;48.796;9.806;2022-09-12T14:28:57;1.20;;;1.10;;
66183;SDS011;52989;48.796;9.806;2022-09-12T14:31:30;1.60;;;1.40;;
66183;SDS011;52989;48.796;9.806;2022-09-12T14:34:14;2.35;;;1.25;;
66183;SDS011;52989;48.796;9.806;2022-09-12T14:42:02;2.17;;;1.40;;
66183;SDS011;52989;48.796;9.806;2022-09-12T14:44:37;1.67;;;1.23;;
66183;SDS011;52989;48.796;9.806;2022-09-12T14:47:10;1.33;;;1.05;;
66183;SDS011;52989;48.796;9.806;2022-09-12T14:49:44;1.38;;;1.10;;
66183;SDS011;52989;48.796;9.806;2022-09-12T14:54:57;2.83;;;1.13;;
66183;SDS011;52989;48.796;9.806;2022-09-12T14:57:37;3.80;;;1.30;;
66183;SDS011;52989;48.796;9.806;2022-09-12T15:02:36;1.45;;;1.05;;
66183;SDS011;52989;48.796;9.806;2022-09-12T15:10:01;1.48;;;1.20;;
66183;SDS011;52989;48.796;9.806;2022-09-12T15:12:29;4.57;;;1.50;;
66183;SDS011;52989;48.796;9.806;2022-09-12T15:17:44;1.27;;;0.90;;
66183;SDS011;52989;48.796;9.806;2022-09-12T15:20:10;1.88;;;1.30;;
66183;SDS011;52989;48.796;9.806;2022-09-12T15:22:37;3.10;;;1.23;;
66183;SDS011;52989;48.796;9.806;2022-09-12T15:25:04;1.48;;;1.20;;
66183;SDS011;52989;48.796;9.806;2022-09-12T15:27:30;1.45;;;1.15;;
66183;SDS011;52989;48.796;9.806;2022-09-12T15:29:56;2.33;;;1.13;;
66183;SDS011;52989;48.796;9.806;2022-09-12T15:32:22;2.17;;;1.15;;
66183;SDS011;52989;48.796;9.806;2022-09-12T15:34:53;2.42;;;1.17;;
66183;SDS011;52989;48.796;9.806;2022-09-12T15:37:19;2.90;;;1.27;;
66183;SDS011;52989;48.796;9.806;2022-09-12T15:39:46;3.10;;;1.00;;
66183;SDS011;52989;48.796;9.806;2022-09-12T15:42:15;1.75;;;1.20;;
66183;SDS011;52989;48.796;9.806;2022-09-12T15:44:41;1.73;;;1.00;;
66183;SDS011;52989;48.796;9.806;2022-09-12T15:47:08;2.00;;;1.17;;
66183;SDS011;52989;48.796;9.806;2022-09-12T15:49:36;2.38;;;1.20;;
66183;SDS011;52989;48.796;9.806;2022-09-12T15:52:02;1.35;;;1.20;;
66183;SDS011;52989;48.796;9.806;2022-09-12T15:54:28;4.93;;;1.50;;
66183;SDS011;52989;48.796;9.806;2022-09-12T15:56:53;2.28;;;1.20;;
66183;SDS011;52989;48.796;9.806;2022-09-12T15:59:19;1.90;;;1.20;;
66183;SDS011;52989;48.796;9.806;2022-09-12T16:01:44;4.18;;;1.10;;
66183;SDS011;52989;48.796;9.806;2022-09-12T16:04:21;1.63;;;1.17;;
66183;SDS011;52989;48.796;9.806;2022-09-12T16:06:48;3.25;;;1.30;;
66183;SDS011;52989;48.796;9.806;2022-09-12T16:09:14;1.60;;;1.05;;
66183;SDS011;52989;48.796;9.806;2022-09-12T16:11:40;1.52;;;1.00;;
66183;SDS011;52989;48.796;9.806;2022-09-12T16:14:06;1.65;;;1.20;;
66183;SDS011;52989;48.796;9.806;2022-09-12T16:16:31;1.48;;;1.30;;
66183;SDS011;52989;48.796;9.806;2022-09-12T16:18:57;1.70;;;1.08;;
66183;SDS011;52989;48.796;9.806;2022-09-12T16:21:23;1.83;;;1.20;;
66183;SDS011;52989;48.796;9.806;2022-09-12T16:23:49;3.15;;;1.20;;
66183;SDS011;52989;48.796;9.806;2022-09-12T16:26:15;1.70;;;1.02;;
66183;SDS011;52989;48.796;9.806;2022-09-12T16:28:41;1.75;;;1.20;;
66183;SDS011;52989;48.796;9.806;2022-09-12T16:31:07;2.25;;;1.10;;
66183;SDS011;52989;48.796;9.806;2022-09-12T16:33:36;1.10;;;0.95;;
66183;SDS011;52989;48.796;9.806;2022-09-12T16:36:06;1.13;;;1.02;;
66183;SDS011;52989;48.796;9.806;2022-09-12T16:38:33;1.55;;;1.10;;
66183;SDS011;52989;48.796;9.806;2022-09-12T16:41:04;2.65;;;1.40;;
66183;SDS011;52989;48.796;9.806;2022-09-12T16:43:31;1.42;;;1.25;;
66183;SDS011;52989;48.796;9.806;2022-09-12T16:46:11;1.60;;;1.30;;
66183;SDS011;52989;48.796;9.806;2022-09-12T16:48:42;1.52;;;1.30;;
66183;SDS011;52989;48.796;9.806;2022-09-12T16:51:09;4.97;;;1.63;;
66183;SDS011;52989;48.796;9.806;2022-09-12T16:53:36;2.38;;;1.40;;
66183;SDS011;52989;48.796;9.806;2022-09-12T16:56:03;3.10;;;1.30;;
66183;SDS011;52989;48.796;9.806;2022-09-12T16:58:33;2.38;;;1.17;;
66183;SDS011;52989;48.796;9.806;2022-09-12T17:01:00;1.52;;;1.30;;
66183;SDS011;52989;48.796;9.806;2022-09-12T17:03:28;2.85;;;1.30;;
66183;SDS011;52989;48.796;9.806;2022-09-12T17:05:58;3.78;;;1.48;;
66183;SDS011;52989;48.796;9.806;2022-09-12T17:08:25;2.13;;;1.50;;
66183;SDS011;52989;48.796;9.806;2022-09-12T17:10:52;1.85;;;1.45;;
66183;SDS011;52989;48.796;9.806;2022-09-12T17:13:26;2.55;;;1.45;;
66183;SDS011;52989;48.796;9.806;2022-09-12T17:15:52;2.40;;;1.20;;
66183;SDS011;52989;48.796;9.806;2022-09-12T17:18:18;2.55;;;1.67;;
66183;SDS011;52989;48.796;9.806;2022-09-12T17:20:43;2.60;;;1.55;;
66183;SDS011;52989;48.796;9.806;2022-09-12T17:23:09;1.70;;;1.30;;
66183;SDS011;52989;48.796;9.806;2022-09-12T17:25:35;3.95;;;1.67;;
66183;SDS011;52989;48.796;9.806;2022-09-12T17:28:00;3.28;;;1.30;;
66183;SDS011;52989;48.796;9.806;2022-09-12T17:30:29;1.92;;;1.35;;
66183;SDS011;52989;48.796;9.806;2022-09-12T17:32:57;3.17;;;1.60;;
66183;SDS011;52989;48.796;9.806;2022-09-12T17:35:23;1.98;;;1.60;;
66183;SDS011;52989;48.796;9.806;2022-09-12T17:37:48;2.03;;;1.60;;